Memphis, TN

11:58 PM CST on March 01, 2015 (GMT -0600)
Sea Isle | Change Station
CLOSE
Current Station
Personal Weather Station
Location: Memphis, TN
Elevation: 276 ft
Nearby Weather Stations

Elev 276 ft 35.09 °N, 89.89 °W | Updated 14 seconds ago

Overcast
Overcast
37.9 °F
Feels Like 36 °F
N
3.1
Wind Variable Wind from South
Gusts 7.6 mph

Today
High -- | Low -- °F
--% Chance of Precip.
Yesterday
High -- | Low -- °F
Precip. -- in
6:29 AM 5:55 PM
Waxing Gibbous, 89% visible
Pressure 30.40 in
Visibility 8.0 miles
Clouds Overcast 700 ft
Windchill 36 °F
Dew Point 38 °F
Humidity 99%
Rainfall 0.40 in
Snow Depth Not available.
UV 0 out of 12
Pollen 4.50 out of 12
Air Quality Not available.
Flu Activity Not available.
METAR KMEM 020554Z 03009KT 8SM OVC007 03/02 A3039 RMK AO2 CIG 006V011 SLP292 60015 T00330017 10067 20033 400890022 51004

More Conditions Fewer Conditions

Pressure 30.40 in
Visibility 8.0 miles
Clouds Overcast 700 ft
Windchill 36 °F
Dew Point 38 °F
Humidity 99%
Rainfall 0.40 in
Snow Depth Not available.
UV 0 out of 12
Pollen 4.50 out of 12
Air Quality Not available.
Flu Activity Not available.
METAR KMEM 020554Z 03009KT 8SM OVC007 03/02 A3039 RMK AO2 CIG 006V011 SLP292 60015 T00330017 10067 20033 400890022 51004

More Conditions Fewer Conditions

10-Day Weather Forecast

Almanac

Astronomy

Mar. 01, 2015 Rise Set
Actual Time
Civil Twilight
Nautical Twilight
Astronomical Twilight
Moon
Length of Visible Light
Length of Day
Tomorrow will be .
, % of the Moon is Illuminated

Today's Extremes

State Highs State Lows

Community

WunderPhotos

Upload Photos

1,801,735 photos uploaded!

WunderBlogs® & News

Nearby

Air Quality

  Air Quality AQ Index Pollutant
Not available.

Snow Depth

Station Depth Elevation

Earthquake Activity

City Distance Mag. Time & Date
Minimum magnitude displayed is 2.5.

Coastal Water Temperatures

Place Temperature

Nearby Weather Stations